BIENTÔT MET'MAP
version 2.0 !

Prévue avant fin octobre,
la nouvelle version sera
plus belle, plus complète
et hébergée sur un serveur
3 fois plus puissant...
et toujours gratuite !


Pas compatible ?
Essayez la version Mobile !

SE CONNECTER : | S'inscrire | Disclaimer | Découvrir Orbifly |
Code OACI :

TAF - LTBG Bandırma Airport - 02 Jun 2020 14:40 UTC - Data Source NOAA   


- Altitude de l'aérodrome : 170 ft
- Code IATA : BDM
- Pas de NOTAMs connus.


LTBG - Bandırma Airport

Dernier METAR connu : 2015/08/11 05:03 LTBG 110503Z 00000KT 9999 -SHRA SCT035 BKN100 22/20 Q1010 NOSIG RMK RWY18 18003KT 140V210
TAF TAF LTBG
Valide du 02 à 12h jusqu'au 02 à 21h UTC


021040Z 0212/0221 VRB02KT 9999 SCT035 BKN100
TEMPO 0212/0216 03015KT -TSRA FEW027CB BKN030 BKN090

Source NOAA


MET'MAP, la Météo Aéronautique d'un coup d'oeil ! - Copyright ORBIFLY Décembre 2007

Développement & Programmation : Alexandra Zaïnal
Co-Développement : Marc-Olivier Méhu
Soutien technique & logistique : Manuel Goepfert
Conception & Financement : Baudouin d'Aumeries